Time;durP1;ratioP1;P1;durP2;ratioP2;P2;SDS_P1;SDS_P2;PMS_P1;PMS_P2;Temp;Humidity;BMP_temperature;BMP_pressure;BME280_temperature;BME280_humidity;BME280_pressure;Samples;Min_cycle;Max_cycle;Signal;HPM_P1;HPM_P2
2022/11/17 00:01:57;;;;;;;;;;;6.40;90.00;;;;;;5061406;28;1307;-75
2022/11/17 00:04:25;;;;;;;;;;;6.40;90.00;;;;;;5059160;28;1914;-74
2022/11/17 00:06:53;;;;;;;;;;;6.40;89.50;;;;;;5061556;28;1027;-74
2022/11/17 00:09:21;;;;;;;;;;;6.40;89.70;;;;;;5058752;28;1542;-74
2022/11/17 00:14:36;;;;;;;;;;;6.40;89.80;;;;;;5061652;28;1539;-74
2022/11/17 00:17:05;;;;;;;;;;;6.30;89.70;;;;;;5060774;28;1073;-74
2022/11/17 00:22:18;;;;;;;;;;;6.30;89.40;;;;;;5060807;28;1373;-74
2022/11/17 00:24:47;;;;;;;;;;;6.30;89.20;;;;;;5062498;28;1993;-73
2022/11/17 00:27:16;;;;;;;;;;;6.30;89.20;;;;;;5057211;28;1555;-73
2022/11/17 00:29:44;;;;;;;;;;;6.30;89.40;;;;;;5062629;28;1098;-72
2022/11/17 00:34:57;;;;;;;;;;;6.30;89.00;;;;;;5065396;28;985;-73
2022/11/17 00:37:25;;;;;;;;;;;6.20;88.80;;;;;;5065236;28;1491;-72
2022/11/17 00:39:53;;;;;;;;;;;6.20;89.20;;;;;;5073603;28;1065;-72
2022/11/17 00:42:28;;;;;;;;;;;6.20;89.40;;;;;;5068854;28;1338;-73
2022/11/17 00:44:56;;;;;;;;;;;6.30;89.50;;;;;;5063012;28;1884;-73
2022/11/17 00:47:24;;;;;;;;;;;6.30;89.40;;;;;;5057216;28;1766;-73
2022/11/17 00:49:51;;;;;;;;;;;6.20;89.10;;;;;;5063521;28;1645;-73
2022/11/17 00:52:19;;;;;;;;;;;6.20;89.70;;;;;;5062353;28;1385;-73
2022/11/17 00:54:46;;;;;;;;;;;6.30;89.70;;;;;;5060596;28;1074;-74
2022/11/17 00:57:14;;;;;;;;;;;6.10;89.30;;;;;;5061577;28;1013;-71
2022/11/17 00:59:43;;;;;;;;;;;6.30;90.00;;;;;;5064095;28;1088;-72
2022/11/17 01:02:10;;;;;;;;;;;6.20;89.20;;;;;;5063204;28;1253;-71
2022/11/17 01:04:38;;;;;;;;;;;6.10;89.40;;;;;;5060157;28;1911;-73
2022/11/17 01:07:06;;;;;;;;;;;6.20;89.50;;;;;;5064455;28;1109;-71
2022/11/17 01:09:34;;;;;;;;;;;6.10;89.50;;;;;;5064446;28;1009;-71
2022/11/17 01:12:01;;;;;;;;;;;6.20;89.40;;;;;;5060874;28;1284;-72
2022/11/17 01:14:29;;;;;;;;;;;6.20;89.50;;;;;;5065356;28;1068;-73
2022/11/17 01:16:58;;;;;;;;;;;6.00;89.40;;;;;;5062533;28;1264;-73
2022/11/17 01:19:26;;;;;;;;;;;6.20;89.60;;;;;;5064417;28;1002;-73
2022/11/17 01:21:53;;;;;;;;;;;6.10;89.20;;;;;;5063300;28;1625;-72
2022/11/17 01:24:21;;;;;;;;;;;6.10;89.80;;;;;;5061215;28;1117;-72
2022/11/17 01:26:50;;;;;;;;;;;6.00;89.40;;;;;;5064013;28;1910;-72
2022/11/17 01:29:18;;;;;;;;;;;6.10;89.90;;;;;;5062201;28;1206;-72
2022/11/17 01:31:49;;;;;;;;;;;5.90;89.30;;;;;;5061896;28;1189;-72
2022/11/17 01:34:18;;;;;;;;;;;6.00;89.40;;;;;;5062558;28;1141;-72
2022/11/17 01:39:31;;;;;;;;;;;6.00;89.70;;;;;;5061534;28;1109;-72
2022/11/17 01:42:02;;;;;;;;;;;6.00;89.80;;;;;;5065743;28;1335;-72
2022/11/17 01:44:48;;;;;;;;;;;6.10;89.70;;;;;;5061081;28;1033;-72
2022/11/17 01:47:17;;;;;;;;;;;5.90;89.30;;;;;;5063344;28;989;-73
2022/11/17 01:49:46;;;;;;;;;;;5.90;89.90;;;;;;5062203;28;1139;-73
2022/11/17 01:52:15;;;;;;;;;;;5.90;89.60;;;;;;5062107;28;1365;-73
2022/11/17 01:54:43;;;;;;;;;;;6.10;89.60;;;;;;5063128;28;1589;-73
2022/11/17 01:57:12;;;;;;;;;;;6.10;89.50;;;;;;5062044;28;998;-72
2022/11/17 01:59:41;;;;;;;;;;;6.00;89.30;;;;;;5064334;28;1017;-72
2022/11/17 02:02:08;;;;;;;;;;;5.90;89.40;;;;;;5066033;28;1370;-73
2022/11/17 02:04:38;;;;;;;;;;;5.90;89.70;;;;;;5065728;28;1049;-72
2022/11/17 02:07:09;;;;;;;;;;;5.90;89.40;;;;;;5067119;28;1985;-72
2022/11/17 02:09:38;;;;;;;;;;;5.90;89.60;;;;;;5067841;28;998;-70
2022/11/17 02:12:08;;;;;;;;;;;5.80;89.50;;;;;;5066854;28;1343;-70
2022/11/17 02:17:35;;;;;;;;;;;5.80;89.90;;;;;;5723450;22;1919;-86
2022/11/17 02:20:05;;;;;;;;;;;5.80;90.00;;;;;;4984653;28;1655;-89
2022/11/17 02:22:47;;;;;;;;;;;5.80;89.60;;;;;;4992910;28;1546;-86
2022/11/17 02:25:32;;;;;;;;;;;5.70;89.50;;;;;;4996574;28;1898;-86
2022/11/17 02:28:06;;;;;;;;;;;5.90;90.00;;;;;;4994277;28;1536;-87
2022/11/17 02:30:38;;;;;;;;;;;5.70;89.60;;;;;;5002940;28;1711;-86
2022/11/17 02:33:11;;;;;;;;;;;5.60;89.10;;;;;;4995104;28;1553;-86
2022/11/17 02:35:41;;;;;;;;;;;5.80;89.60;;;;;;4996636;28;1080;-89
2022/11/17 02:38:15;;;;;;;;;;;5.60;90.00;;;;;;4996767;28;1312;-89
2022/11/17 02:40:44;;;;;;;;;;;5.60;90.20;;;;;;5008903;28;1755;-87
2022/11/17 02:46:04;;;;;;;;;;;5.60;89.00;;;;;;5001838;28;1907;-86
2022/11/17 02:48:34;;;;;;;;;;;5.70;89.60;;;;;;4999554;28;1455;-87
2022/11/17 02:51:02;;;;;;;;;;;5.50;89.20;;;;;;5000074;28;1000;-86
2022/11/17 02:53:30;;;;;;;;;;;5.90;89.70;;;;;;4995014;28;1541;-86
2022/11/17 02:55:59;;;;;;;;;;;5.60;88.50;;;;;;4990483;28;1001;-85
2022/11/17 02:58:28;;;;;;;;;;;5.80;89.20;;;;;;4994466;28;1533;-87
2022/11/17 03:01:10;;;;;;;;;;;5.60;88.40;;;;;;4982284;28;1549;-87
2022/11/17 03:03:44;;;;;;;;;;;5.70;89.30;;;;;;4997571;28;1616;-89
2022/11/17 03:06:19;;;;;;;;;;;5.60;89.30;;;;;;4988950;28;1985;-88
2022/11/17 03:08:49;;;;;;;;;;;5.80;89.00;;;;;;5003889;28;1313;-89
2022/11/17 03:11:21;;;;;;;;;;;5.60;89.00;;;;;;5007899;28;1655;-88
2022/11/17 03:13:56;;;;;;;;;;;5.50;88.80;;;;;;5009716;28;1076;-89
2022/11/17 03:16:25;;;;;;;;;;;5.60;89.10;;;;;;4997630;28;1417;-89
2022/11/17 03:19:00;;;;;;;;;;;5.50;89.00;;;;;;5005515;28;1367;-88
2022/11/17 03:21:29;;;;;;;;;;;5.60;89.10;;;;;;5006914;28;1615;-88
2022/11/17 03:24:02;;;;;;;;;;;5.40;88.40;;;;;;5011786;28;1656;-87
2022/11/17 03:26:31;;;;;;;;;;;5.60;88.30;;;;;;5010592;28;1890;-86
2022/11/17 03:29:01;;;;;;;;;;;5.50;88.20;;;;;;5002922;28;1626;-89
2022/11/17 03:31:30;;;;;;;;;;;5.40;88.10;;;;;;5000175;28;997;-88
2022/11/17 03:34:01;;;;;;;;;;;5.40;88.40;;;;;;4998363;28;1704;-88
2022/11/17 03:36:30;;;;;;;;;;;5.50;88.50;;;;;;5002283;28;1021;-86
2022/11/17 03:38:59;;;;;;;;;;;5.40;88.60;;;;;;4988718;28;1558;-88
2022/11/17 03:41:29;;;;;;;;;;;5.40;87.80;;;;;;4999271;28;1704;-87
2022/11/17 03:43:58;;;;;;;;;;;5.30;88.30;;;;;;4988448;28;1586;-86
2022/11/17 03:46:28;;;;;;;;;;;5.40;87.90;;;;;;5000162;28;1887;-89
2022/11/17 03:48:58;;;;;;;;;;;5.50;87.80;;;;;;4993301;28;1413;-88
2022/11/17 03:51:27;;;;;;;;;;;5.50;87.60;;;;;;4994413;28;1024;-87
2022/11/17 03:53:55;;;;;;;;;;;5.30;87.10;;;;;;4999835;28;973;-87
2022/11/17 03:56:27;;;;;;;;;;;5.30;87.80;;;;;;4991591;28;1387;-88
2022/11/17 03:58:56;;;;;;;;;;;5.40;88.00;;;;;;4999670;28;1540;-87
2022/11/17 04:01:25;;;;;;;;;;;5.30;87.40;;;;;;4996967;28;1049;-87
2022/11/17 04:03:55;;;;;;;;;;;5.30;87.70;;;;;;4990305;28;1056;-87
2022/11/17 04:07:05;;;;;;;;;;;5.20;87.50;;;;;;4993611;28;1867;-89
2022/11/17 04:16:05;;;;;;;;;;;5.20;86.60;;;;;;4984642;28;945;-89
2022/11/17 04:18:33;;;;;;;;;;;5.40;86.60;;;;;;4993013;28;1708;-88
2022/11/17 04:21:02;;;;;;;;;;;4.90;86.80;;;;;;4995950;28;993;-89
2022/11/17 04:23:30;;;;;;;;;;;5.30;88.00;;;;;;4999823;28;1707;-88
2022/11/17 04:28:44;;;;;;;;;;;5.50;87.20;;;;;;4994107;28;1665;-87
2022/11/17 04:31:13;;;;;;;;;;;5.10;87.40;;;;;;4992278;28;1342;-88
2022/11/17 04:33:41;;;;;;;;;;;5.10;87.50;;;;;;4995640;28;997;-88
2022/11/17 04:36:11;;;;;;;;;;;5.10;88.20;;;;;;4991042;28;1033;-88
2022/11/17 04:38:40;;;;;;;;;;;5.00;87.90;;;;;;4980769;28;1562;-91
2022/11/17 04:43:54;;;;;;;;;;;5.10;87.80;;;;;;4984668;28;987;-89
2022/11/17 04:46:26;;;;;;;;;;;5.10;87.80;;;;;;4984659;28;1883;-88
2022/11/17 04:48:56;;;;;;;;;;;5.10;88.10;;;;;;4983141;28;1530;-89
2022/11/17 04:51:26;;;;;;;;;;;5.00;88.10;;;;;;5001625;28;1025;-87
2022/11/17 04:53:54;;;;;;;;;;;5.10;87.70;;;;;;4996907;28;868;-87
2022/11/17 04:56:22;;;;;;;;;;;5.30;88.20;;;;;;4983905;28;1505;-88
2022/11/17 04:58:50;;;;;;;;;;;5.10;88.10;;;;;;4989847;28;1565;-91
2022/11/17 05:01:18;;;;;;;;;;;5.20;87.70;;;;;;4996828;28;1072;-90
2022/11/17 05:03:47;;;;;;;;;;;5.00;88.00;;;;;;4991317;28;1423;-87
2022/11/17 05:06:17;;;;;;;;;;;5.10;88.10;;;;;;5000070;28;1132;-87
2022/11/17 05:08:47;;;;;;;;;;;5.10;87.70;;;;;;5002210;28;1561;-90
2022/11/17 05:14:00;;;;;;;;;;;5.00;87.60;;;;;;4998213;28;1506;-87
2022/11/17 05:19:14;;;;;;;;;;;5.30;87.80;;;;;;4983119;28;1537;-88
2022/11/17 05:21:46;;;;;;;;;;;5.10;87.20;;;;;;4983495;28;1632;-88
2022/11/17 05:24:15;;;;;;;;;;;5.00;87.00;;;;;;4991601;28;1758;-87
2022/11/17 05:26:46;;;;;;;;;;;5.20;87.60;;;;;;4995009;28;1907;-87
2022/11/17 05:29:15;;;;;;;;;;;5.00;88.40;;;;;;4989348;28;1635;-87
2022/11/17 05:31:44;;;;;;;;;;;5.00;87.50;;;;;;4991995;28;1558;-88
2022/11/17 05:34:13;;;;;;;;;;;4.90;88.10;;;;;;4993623;28;1670;-88
2022/11/17 05:36:41;;;;;;;;;;;5.00;88.60;;;;;;4993755;28;1779;-88
2022/11/17 05:39:09;;;;;;;;;;;5.00;87.70;;;;;;5004262;28;1281;-88
2022/11/17 05:41:38;;;;;;;;;;;5.10;87.10;;;;;;4999602;28;946;-88
2022/11/17 05:44:06;;;;;;;;;;;5.30;87.80;;;;;;4986893;28;1612;-87
2022/11/17 05:46:34;;;;;;;;;;;5.00;86.70;;;;;;4987435;28;1571;-88
2022/11/17 05:49:02;;;;;;;;;;;5.10;86.70;;;;;;5001737;28;1944;-88
2022/11/17 05:51:32;;;;;;;;;;;4.90;86.50;;;;;;5006420;28;1537;-88
2022/11/17 05:54:00;;;;;;;;;;;5.10;86.40;;;;;;5006196;28;1725;-88
2022/11/17 05:56:30;;;;;;;;;;;4.80;86.40;;;;;;4998986;28;1513;-88
2022/11/17 05:59:02;;;;;;;;;;;4.80;88.30;;;;;;5005523;28;1295;-88
2022/11/17 06:01:32;;;;;;;;;;;4.90;88.20;;;;;;4995516;28;1159;-87
2022/11/17 06:04:02;;;;;;;;;;;4.90;87.60;;;;;;4994418;28;1562;-88
2022/11/17 06:06:57;;;;;;;;;;;4.90;87.60;;;;;;4994685;28;1730;-85
2022/11/17 06:09:26;;;;;;;;;;;4.50;88.50;;;;;;4960659;29;1706;-85
2022/11/17 06:11:54;;;;;;;;;;;4.90;88.10;;;;;;4988808;28;1374;-87
2022/11/17 06:14:26;;;;;;;;;;;4.70;87.50;;;;;;5001555;28;1199;-83
2022/11/17 06:16:57;;;;;;;;;;;4.90;88.20;;;;;;4995102;28;1414;-83
2022/11/17 06:19:27;;;;;;;;;;;4.80;88.70;;;;;;4994987;28;1694;-84
2022/11/17 06:21:55;;;;;;;;;;;4.80;88.20;;;;;;4999389;28;1085;-85
2022/11/17 06:24:39;;;;;;;;;;;5.00;87.60;;;;;;4993701;28;1674;-82
2022/11/17 06:27:07;;;;;;;;;;;4.90;87.20;;;;;;5003021;28;1985;-85
2022/11/17 06:29:37;;;;;;;;;;;4.90;86.50;;;;;;4998728;28;1571;-85
2022/11/17 06:32:12;;;;;;;;;;;4.90;88.00;;;;;;4994030;28;1654;-85
2022/11/17 06:34:40;;;;;;;;;;;5.00;87.10;;;;;;4987927;28;1025;-85
2022/11/17 06:37:07;;;;;;;;;;;4.80;86.70;;;;;;4983797;28;1704;-86
2022/11/17 06:39:37;;;;;;;;;;;4.80;87.20;;;;;;4990013;28;1573;-88
2022/11/17 06:42:05;;;;;;;;;;;4.90;86.50;;;;;;4985715;28;1016;-86
2022/11/17 06:53:13;;;;;;;;;;;4.80;85.80;;;;;;4967470;28;1460;-87
2022/11/17 06:56:10;;;;;;;;;;;4.80;87.60;;;;;;4980160;28;1153;-87
2022/11/17 06:58:48;;;;;;;;;;;4.80;86.70;;;;;;4988850;28;1467;-86
2022/11/17 07:01:17;;;;;;;;;;;4.70;86.30;;;;;;4994018;28;1656;-86
2022/11/17 07:03:46;;;;;;;;;;;5.10;88.10;;;;;;4994653;28;1454;-86
2022/11/17 07:06:17;;;;;;;;;;;4.80;86.30;;;;;;5011988;28;1586;-86
2022/11/17 07:08:45;;;;;;;;;;;4.70;86.20;;;;;;5003066;28;1906;-85
2022/11/17 07:11:19;;;;;;;;;;;5.10;87.00;;;;;;4991484;28;1025;-85
2022/11/17 07:13:47;;;;;;;;;;;4.70;86.70;;;;;;4991764;28;1402;-86
2022/11/17 07:16:18;;;;;;;;;;;5.10;86.20;;;;;;4996029;28;1573;-85
2022/11/17 07:18:53;;;;;;;;;;;4.80;87.10;;;;;;4992987;28;1564;-86
2022/11/17 07:21:22;;;;;;;;;;;4.80;87.00;;;;;;4990942;28;1582;-85
2022/11/17 07:23:50;;;;;;;;;;;4.80;86.70;;;;;;4985002;28;1531;-86
2022/11/17 07:26:17;;;;;;;;;;;4.70;86.50;;;;;;4998784;28;1484;-87
2022/11/17 07:28:55;;;;;;;;;;;4.70;85.60;;;;;;4997526;28;1911;-86
2022/11/17 07:31:25;;;;;;;;;;;4.70;86.50;;;;;;4995781;28;1575;-86
2022/11/17 07:33:54;;;;;;;;;;;4.90;87.70;;;;;;4991221;28;1532;-86
2022/11/17 07:36:29;;;;;;;;;;;5.10;86.70;;;;;;4998727;28;781;-86
2022/11/17 07:39:07;;;;;;;;;;;4.90;87.30;;;;;;4992846;28;1459;-87
2022/11/17 07:41:35;;;;;;;;;;;4.80;85.90;;;;;;4997583;28;1734;-85
2022/11/17 07:44:04;;;;;;;;;;;4.70;84.60;;;;;;5002453;28;1442;-86
2022/11/17 07:46:34;;;;;;;;;;;4.70;85.50;;;;;;5010864;28;1747;-86
2022/11/17 07:49:04;;;;;;;;;;;4.80;87.60;;;;;;5000629;28;1907;-87
2022/11/17 07:51:42;;;;;;;;;;;5.10;87.80;;;;;;4993794;28;1553;-87
2022/11/17 07:54:10;;;;;;;;;;;5.00;85.80;;;;;;4994627;28;1425;-86
2022/11/17 07:56:38;;;;;;;;;;;5.00;87.90;;;;;;4989211;28;1115;-86
2022/11/17 07:59:06;;;;;;;;;;;4.40;86.10;;;;;;4993534;28;1355;-87
2022/11/17 08:01:35;;;;;;;;;;;4.70;86.70;;;;;;4991056;28;1398;-86
2022/11/17 08:04:03;;;;;;;;;;;5.10;87.00;;;;;;4990137;28;1557;-86
2022/11/17 08:06:33;;;;;;;;;;;5.00;86.20;;;;;;4990984;28;1462;-85
2022/11/17 08:09:06;;;;;;;;;;;4.80;87.10;;;;;;4996418;28;1954;-86
2022/11/17 08:11:36;;;;;;;;;;;4.70;86.20;;;;;;4993483;28;1152;-88
2022/11/17 08:14:05;;;;;;;;;;;4.90;86.20;;;;;;4998599;28;1140;-88
2022/11/17 08:16:32;;;;;;;;;;;4.70;86.30;;;;;;4989543;28;950;-86
2022/11/17 08:19:03;;;;;;;;;;;4.70;86.40;;;;;;4996321;28;1581;-87
2022/11/17 08:21:32;;;;;;;;;;;4.80;87.20;;;;;;5000058;28;1679;-86
2022/11/17 08:24:00;;;;;;;;;;;4.90;86.80;;;;;;4990001;28;1032;-87
2022/11/17 08:26:30;;;;;;;;;;;4.50;85.80;;;;;;4994321;28;1450;-87
2022/11/17 08:29:04;;;;;;;;;;;4.90;87.20;;;;;;4987171;28;1895;-86
2022/11/17 08:31:40;;;;;;;;;;;4.90;87.20;;;;;;4990387;28;1067;-86
2022/11/17 08:34:28;;;;;;;;;;;4.70;88.10;;;;;;4911461;29;1399;-89
2022/11/17 08:36:58;;;;;;;;;;;4.80;87.00;;;;;;4912857;29;1582;-87
2022/11/17 08:39:26;;;;;;;;;;;4.50;85.90;;;;;;4908722;29;1391;-86
2022/11/17 08:41:54;;;;;;;;;;;4.90;86.80;;;;;;4905268;29;1324;-86
2022/11/17 08:44:22;;;;;;;;;;;5.00;85.90;;;;;;4908004;29;1600;-87
2022/11/17 08:46:50;;;;;;;;;;;4.90;86.40;;;;;;4908819;29;1506;-88
2022/11/17 08:56:57;;;;;;;;;;;4.80;88.50;;;;;;4772982;29;1275;-88
2022/11/17 08:59:39;;;;;;;;;;;4.80;88.60;;;;;;4826305;29;1607;-86
2022/11/17 09:02:29;;;;;;;;;;;5.00;88.40;;;;;;4803632;29;1148;-86
2022/11/17 09:05:40;;;;;;;;;;;5.00;88.60;;;;;;4838182;29;1225;-87
2022/11/17 09:08:49;;;;;;;;;;;4.80;89.00;;;;;;4788975;29;1974;-87
2022/11/17 09:29:16;;;;;;;;;;;5.10;88.80;;;;;;4864319;29;1974;-86
2022/11/17 09:31:51;;;;;;;;;;;4.90;88.90;;;;;;4861678;29;1654;-85
2022/11/17 09:34:45;;;;;;;;;;;;;;;;;;;;;
2022/11/17 09:40:44;;;;;;;;;;;5.20;89.10;;;;;;4854151;29;1397;-86
2022/11/17 09:43:28;;;;;;;;;;;4.80;89.00;;;;;;4886250;29;1558;-89
2022/11/17 09:45:59;;;;;;;;;;;5.10;89.30;;;;;;4924536;28;1665;-88
2022/11/17 09:48:39;;;;;;;;;;;5.10;89.10;;;;;;4944387;28;1567;-89
2022/11/17 09:51:12;;;;;;;;;;;5.30;89.00;;;;;;4944109;28;1093;-90
2022/11/17 09:53:43;;;;;;;;;;;5.20;89.00;;;;;;4964230;28;1396;-87
2022/11/17 09:56:13;;;;;;;;;;;5.20;89.10;;;;;;4979782;28;1649;-88
2022/11/17 09:58:44;;;;;;;;;;;5.20;88.40;;;;;;4982006;28;1454;-88
2022/11/17 10:01:13;;;;;;;;;;;5.10;89.10;;;;;;4963437;28;1679;-87
2022/11/17 10:03:43;;;;;;;;;;;5.40;88.60;;;;;;4964311;28;1598;-86
2022/11/17 10:15:19;;;;;;;;;;;5.30;88.80;;;;;;4994928;28;1438;-90
2022/11/17 10:17:47;;;;;;;;;;;5.30;88.80;;;;;;5013557;28;1660;-88
2022/11/17 10:20:17;;;;;;;;;;;5.30;87.80;;;;;;5020938;28;1742;-87
2022/11/17 10:22:56;;;;;;;;;;;5.40;87.90;;;;;;5020188;28;1497;-87
2022/11/17 10:25:36;;;;;;;;;;;5.30;88.60;;;;;;5020515;28;1723;-89
2022/11/17 10:28:07;;;;;;;;;;;5.40;89.20;;;;;;5020846;28;1702;-89
2022/11/17 10:30:35;;;;;;;;;;;5.00;88.30;;;;;;5021535;28;1891;-88
2022/11/17 10:33:04;;;;;;;;;;;5.40;88.70;;;;;;5020576;28;1622;-89
2022/11/17 10:35:32;;;;;;;;;;;5.40;87.70;;;;;;5005462;28;1434;-89
2022/11/17 10:38:01;;;;;;;;;;;5.50;88.90;;;;;;5002776;28;1541;-87
2022/11/17 10:40:31;;;;;;;;;;;5.50;89.00;;;;;;5008157;28;1759;-88
2022/11/17 10:43:16;;;;;;;;;;;5.70;88.80;;;;;;5007669;28;1394;-88
2022/11/17 10:45:44;;;;;;;;;;;5.40;88.90;;;;;;5020224;28;1591;-89
2022/11/17 10:48:19;;;;;;;;;;;5.40;88.00;;;;;;5011218;28;1530;-88
2022/11/17 10:50:51;;;;;;;;;;;5.40;88.90;;;;;;5001685;28;1906;-87
2022/11/17 10:53:25;;;;;;;;;;;5.40;89.20;;;;;;4985462;28;1652;-89
2022/11/17 10:55:56;;;;;;;;;;;5.40;89.20;;;;;;4989119;28;1377;-87
2022/11/17 10:58:24;;;;;;;;;;;5.40;89.30;;;;;;4995154;28;1564;-88
2022/11/17 11:00:53;;;;;;;;;;;5.40;88.90;;;;;;4998453;28;1679;-86
2022/11/17 11:03:22;;;;;;;;;;;5.50;89.50;;;;;;5003729;28;1732;-87
2022/11/17 11:05:58;;;;;;;;;;;5.50;90.00;;;;;;4997741;28;1120;-86
2022/11/17 11:08:27;;;;;;;;;;;5.40;90.60;;;;;;5000692;28;1548;-89
2022/11/17 11:10:58;;;;;;;;;;;5.20;91.20;;;;;;4999938;28;1907;-86
2022/11/17 11:13:30;;;;;;;;;;;5.20;91.90;;;;;;4990791;28;1006;-85
2022/11/17 11:15:59;;;;;;;;;;;5.20;92.50;;;;;;4995626;28;1733;-86
2022/11/17 11:18:32;;;;;;;;;;;5.20;92.20;;;;;;4993885;28;1492;-88
2022/11/17 11:21:10;;;;;;;;;;;5.20;93.20;;;;;;5003584;28;1698;-86
2022/11/17 11:23:43;;;;;;;;;;;5.20;93.40;;;;;;4999187;28;1527;-86
2022/11/17 11:26:19;;;;;;;;;;;5.10;93.60;;;;;;4990004;28;1156;-87
2022/11/17 11:28:54;;;;;;;;;;;5.40;93.40;;;;;;4995496;28;1335;-87
2022/11/17 11:31:26;;;;;;;;;;;5.00;93.30;;;;;;5006740;28;2001;-88
2022/11/17 11:34:00;;;;;;;;;;;5.10;94.10;;;;;;5009943;28;1373;-86
2022/11/17 11:36:36;;;;;;;;;;;5.20;93.50;;;;;;5004892;28;1442;-86
2022/11/17 11:39:12;;;;;;;;;;;5.20;93.30;;;;;;5001059;28;1558;-87
2022/11/17 11:41:54;;;;;;;;;;;5.10;93.30;;;;;;4988995;28;1652;-87
2022/11/17 11:44:34;;;;;;;;;;;5.00;93.60;;;;;;4987371;28;996;-86
2022/11/17 11:47:08;;;;;;;;;;;5.00;94.10;;;;;;4998949;28;1017;-87
2022/11/17 11:49:37;;;;;;;;;;;5.30;93.90;;;;;;4991647;28;1547;-88
2022/11/17 11:52:10;;;;;;;;;;;5.10;93.50;;;;;;5003605;28;1972;-87
2022/11/17 11:54:40;;;;;;;;;;;5.10;94.10;;;;;;5000904;28;1559;-87
2022/11/17 11:57:16;;;;;;;;;;;5.30;94.30;;;;;;4997479;28;1646;-87
2022/11/17 11:59:49;;;;;;;;;;;4.90;94.00;;;;;;4988548;28;1537;-88
2022/11/17 12:02:22;;;;;;;;;;;4.90;95.10;;;;;;4991673;28;1658;-87
2022/11/17 12:04:55;;;;;;;;;;;5.00;95.20;;;;;;5001790;28;1501;-87
2022/11/17 12:07:27;;;;;;;;;;;4.90;95.40;;;;;;5002820;28;1591;-87
2022/11/17 12:10:00;;;;;;;;;;;5.20;95.80;;;;;;5009906;28;1960;-88
2022/11/17 12:12:30;;;;;;;;;;;4.80;96.70;;;;;;4997473;28;1687;-90
2022/11/17 12:15:09;;;;;;;;;;;5.10;96.40;;;;;;5008423;28;1649;-87
2022/11/17 12:18:07;;;;;;;;;;;5.00;96.40;;;;;;4999003;28;1368;-90
2022/11/17 12:23:58;;;;;;;;;;;4.80;96.90;;;;;;4981718;28;1568;-87
2022/11/17 12:26:37;;;;;;;;;;;4.80;97.60;;;;;;4969618;28;1898;-88
2022/11/17 12:29:49;;;;;;;;;;;4.70;97.40;;;;;;4983868;28;1536;-89
2022/11/17 12:32:56;;;;;;;;;;;4.80;97.70;;;;;;4980990;28;1980;-89
2022/11/17 12:35:27;;;;;;;;;;;4.80;97.70;;;;;;4975009;28;1416;-87
2022/11/17 12:41:45;;;;;;;;;;;4.60;98.00;;;;;;4877342;29;1426;-86
2022/11/17 12:44:35;;;;;;;;;;;4.80;98.00;;;;;;4938018;28;1836;-87
2022/11/17 12:47:14;;;;;;;;;;;4.50;98.00;;;;;;4994673;28;1566;-87
2022/11/17 12:49:44;;;;;;;;;;;4.80;98.10;;;;;;4997564;28;1364;-87
2022/11/17 12:52:23;;;;;;;;;;;4.90;97.70;;;;;;5000743;28;1910;-87
2022/11/17 12:55:11;;;;;;;;;;;4.80;97.30;;;;;;4985159;28;1561;-88
2022/11/17 12:57:39;;;;;;;;;;;4.70;97.40;;;;;;5002737;28;1745;-87
2022/11/17 13:00:10;;;;;;;;;;;4.90;96.80;;;;;;4999067;28;962;-87
2022/11/17 13:02:57;;;;;;;;;;;4.80;98.00;;;;;;5000294;28;977;-89
2022/11/17 13:05:26;;;;;;;;;;;4.70;98.10;;;;;;5005677;28;2004;-88
2022/11/17 13:08:13;;;;;;;;;;;4.80;98.30;;;;;;4987001;28;1682;-89
2022/11/17 13:10:41;;;;;;;;;;;4.80;98.20;;;;;;4983285;28;1969;-89
2022/11/17 13:13:10;;;;;;;;;;;4.80;97.70;;;;;;4983400;28;1049;-88
2022/11/17 13:15:38;;;;;;;;;;;4.80;97.70;;;;;;4984206;28;1557;-85
2022/11/17 13:18:15;;;;;;;;;;;4.90;98.00;;;;;;4982943;28;1425;-86
2022/11/17 13:20:50;;;;;;;;;;;4.80;97.90;;;;;;4990238;28;1691;-88
2022/11/17 13:23:19;;;;;;;;;;;5.10;98.10;;;;;;4987197;28;1600;-88
2022/11/17 13:26:13;;;;;;;;;;;5.00;98.00;;;;;;4991451;28;1038;-87
2022/11/17 13:28:41;;;;;;;;;;;4.70;98.00;;;;;;4986025;28;1702;-87
2022/11/17 13:31:13;;;;;;;;;;;4.80;97.90;;;;;;4984307;28;1993;-88
2022/11/17 13:33:54;;;;;;;;;;;5.10;98.10;;;;;;5003669;28;1564;-87
2022/11/17 13:36:26;;;;;;;;;;;4.90;97.30;;;;;;4983593;28;1678;-87
2022/11/17 13:38:56;;;;;;;;;;;4.80;97.90;;;;;;4985042;28;1662;-86
2022/11/17 13:41:27;;;;;;;;;;;4.80;98.00;;;;;;5000023;28;1678;-87
2022/11/17 13:43:56;;;;;;;;;;;4.70;97.60;;;;;;4986668;28;1139;-88
2022/11/17 13:46:24;;;;;;;;;;;4.60;98.00;;;;;;4995634;28;1530;-85
2022/11/17 13:48:53;;;;;;;;;;;4.90;98.40;;;;;;4997879;28;1375;-86
2022/11/17 13:51:26;;;;;;;;;;;4.60;98.20;;;;;;4990185;28;1983;-87
2022/11/17 13:53:55;;;;;;;;;;;4.60;97.90;;;;;;4985734;28;985;-86
2022/11/17 13:56:26;;;;;;;;;;;4.80;98.50;;;;;;5000286;28;1032;-88
2022/11/17 13:58:54;;;;;;;;;;;4.70;97.80;;;;;;4985867;28;1553;-87
2022/11/17 14:01:27;;;;;;;;;;;4.40;97.70;;;;;;4989358;28;1541;-86
2022/11/17 14:04:10;;;;;;;;;;;4.80;98.00;;;;;;5000280;28;1569;-87
2022/11/17 14:06:55;;;;;;;;;;;4.50;98.40;;;;;;5003433;28;1505;-87
2022/11/17 14:09:23;;;;;;;;;;;4.70;98.50;;;;;;4991117;28;1360;-88
2022/11/17 14:11:51;;;;;;;;;;;4.60;98.60;;;;;;4992550;28;1966;-88
2022/11/17 14:14:22;;;;;;;;;;;4.50;98.30;;;;;;5007246;28;1727;-85
2022/11/17 14:16:50;;;;;;;;;;;4.40;98.50;;;;;;4999418;28;1539;-88
2022/11/17 14:19:26;;;;;;;;;;;4.70;98.00;;;;;;4996248;28;1278;-87
2022/11/17 14:22:03;;;;;;;;;;;4.70;98.90;;;;;;4998162;28;1568;-88
2022/11/17 14:24:31;;;;;;;;;;;4.80;99.00;;;;;;5001426;28;1474;-89
2022/11/17 14:27:01;;;;;;;;;;;4.60;98.10;;;;;;4997146;28;1685;-88
2022/11/17 14:29:29;;;;;;;;;;;4.50;97.90;;;;;;4991707;28;1593;-86
2022/11/17 14:31:57;;;;;;;;;;;4.90;98.20;;;;;;5000076;28;1991;-86
2022/11/17 14:34:26;;;;;;;;;;;4.60;98.10;;;;;;4994544;28;1080;-88
2022/11/17 14:36:55;;;;;;;;;;;4.50;98.10;;;;;;5003544;28;1544;-87
2022/11/17 14:39:24;;;;;;;;;;;4.60;98.50;;;;;;4991965;28;1384;-87
2022/11/17 14:41:52;;;;;;;;;;;4.50;98.20;;;;;;4987956;28;990;-87
2022/11/17 14:44:22;;;;;;;;;;;4.60;98.20;;;;;;4998294;28;1484;-86
2022/11/17 14:46:50;;;;;;;;;;;4.50;98.10;;;;;;5000040;28;1599;-89
2022/11/17 14:49:18;;;;;;;;;;;4.80;98.40;;;;;;5000668;28;1265;-87
2022/11/17 14:51:47;;;;;;;;;;;4.90;98.20;;;;;;4992229;28;1891;-86
2022/11/17 14:54:15;;;;;;;;;;;4.60;98.50;;;;;;5000366;28;1623;-86
2022/11/17 14:56:45;;;;;;;;;;;4.40;98.10;;;;;;5010831;28;1734;-87
2022/11/17 14:59:14;;;;;;;;;;;4.50;98.40;;;;;;4988523;28;1569;-88
2022/11/17 15:01:45;;;;;;;;;;;4.30;98.20;;;;;;4996116;28;1449;-86
2022/11/17 15:04:14;;;;;;;;;;;4.70;98.10;;;;;;4991581;28;1425;-88
2022/11/17 15:07:02;;;;;;;;;;;4.40;98.40;;;;;;4991984;28;1697;-86
2022/11/17 15:09:31;;;;;;;;;;;4.50;98.10;;;;;;4987089;28;1501;-86
2022/11/17 15:12:07;;;;;;;;;;;4.60;98.70;;;;;;4992886;28;1978;-85
2022/11/17 15:14:34;;;;;;;;;;;4.50;98.50;;;;;;4990681;28;1538;-85
2022/11/17 15:17:04;;;;;;;;;;;4.80;98.40;;;;;;4995047;28;1556;-86
2022/11/17 15:19:39;;;;;;;;;;;4.60;98.10;;;;;;4992938;28;1453;-87
2022/11/17 15:22:07;;;;;;;;;;;4.50;98.30;;;;;;4993378;28;1757;-86
2022/11/17 15:24:35;;;;;;;;;;;4.80;98.10;;;;;;4987826;28;1079;-86
2022/11/17 15:27:03;;;;;;;;;;;4.50;98.10;;;;;;4991251;28;1501;-85
2022/11/17 15:29:32;;;;;;;;;;;4.60;98.20;;;;;;4991510;28;1564;-87
2022/11/17 15:32:00;;;;;;;;;;;4.50;98.60;;;;;;4995983;28;1965;-86
2022/11/17 15:34:28;;;;;;;;;;;4.60;98.10;;;;;;4992829;28;1731;-86
2022/11/17 15:36:55;;;;;;;;;;;4.50;98.20;;;;;;4987362;28;1533;-87
2022/11/17 15:39:23;;;;;;;;;;;4.50;98.40;;;;;;4986827;28;1375;-87
2022/11/17 15:41:51;;;;;;;;;;;4.50;97.90;;;;;;4991116;28;1549;-88
2022/11/17 15:44:19;;;;;;;;;;;4.40;98.80;;;;;;5004403;28;1779;-86
2022/11/17 15:46:48;;;;;;;;;;;4.50;98.20;;;;;;4990339;28;992;-87
2022/11/17 15:49:16;;;;;;;;;;;4.40;98.50;;;;;;4986720;28;1548;-87
2022/11/17 15:51:47;;;;;;;;;;;4.30;98.30;;;;;;4993927;28;1907;-88
2022/11/17 15:54:15;;;;;;;;;;;4.50;98.50;;;;;;4987191;28;1515;-87
2022/11/17 15:56:47;;;;;;;;;;;4.60;97.90;;;;;;4987926;28;1567;-85
2022/11/17 16:02:07;;;;;;;;;;;4.40;97.70;;;;;;5000318;28;1520;-88
2022/11/17 16:04:36;;;;;;;;;;;4.50;98.90;;;;;;5010723;28;1674;-86
2022/11/17 16:07:06;;;;;;;;;;;4.40;98.50;;;;;;4995058;28;1524;-86
2022/11/17 16:09:34;;;;;;;;;;;4.40;98.50;;;;;;4992543;28;1541;-87
2022/11/17 16:12:05;;;;;;;;;;;4.40;98.20;;;;;;4989451;28;1903;-87
2022/11/17 16:14:34;;;;;;;;;;;4.40;98.40;;;;;;4986880;28;1541;-88
2022/11/17 16:17:06;;;;;;;;;;;4.40;98.80;;;;;;4984550;28;1065;-88
2022/11/17 16:19:34;;;;;;;;;;;4.40;98.50;;;;;;4990348;28;1625;-85
2022/11/17 16:22:02;;;;;;;;;;;4.50;98.70;;;;;;4985468;28;1687;-88
2022/11/17 16:24:36;;;;;;;;;;;4.40;98.30;;;;;;4988456;28;1414;-86
2022/11/17 16:27:14;;;;;;;;;;;4.40;98.30;;;;;;4987581;28;978;-89
2022/11/17 16:29:43;;;;;;;;;;;4.00;98.60;;;;;;4989503;28;1295;-88
2022/11/17 16:32:13;;;;;;;;;;;4.50;98.30;;;;;;4989452;28;1997;-87
2022/11/17 16:34:42;;;;;;;;;;;4.40;99.00;;;;;;4992769;28;1498;-86
2022/11/17 16:37:12;;;;;;;;;;;4.40;98.30;;;;;;4986515;28;1529;-88
2022/11/17 16:39:40;;;;;;;;;;;4.50;98.00;;;;;;5031218;23;1516;-73
2022/11/17 16:42:07;;;;;;;;;;;4.60;98.40;;;;;;5017123;28;1552;-70
2022/11/17 16:44:35;;;;;;;;;;;4.60;98.90;;;;;;5002069;28;1557;-72